createdAt,value
2023-04-15T00:00:29.095Z,99309.63
2023-04-15T00:03:32.068Z,99307.47
2023-04-15T00:06:35.276Z,99306.97
2023-04-15T00:09:38.097Z,99300.31
2023-04-15T00:12:41.221Z,99303.09
2023-04-15T00:15:43.909Z,99303.78
2023-04-15T00:18:46.386Z,99303.44
2023-04-15T00:21:49.072Z,99306.03
2023-04-15T00:24:52.569Z,99306.03
2023-04-15T00:27:55.353Z,99304.81
2023-04-15T00:30:58.757Z,99309.38
2023-04-15T00:34:02.559Z,99303.91
2023-04-15T00:37:04.995Z,99305.28
2023-04-15T00:40:12.951Z,99300.66
2023-04-15T00:43:16.532Z,99301.78
2023-04-15T00:46:21.489Z,99307.00
2023-04-15T00:49:24.901Z,99305.66
2023-04-15T00:52:27.637Z,99306.94
2023-04-15T00:55:30.185Z,99301.59
2023-04-15T00:58:33.186Z,99298.56
2023-04-15T01:01:39.058Z,99299.37
2023-04-15T01:04:42.330Z,99301.88
2023-04-15T01:07:44.668Z,99308.69
2023-04-15T01:10:47.792Z,99298.28
2023-04-15T01:13:51.239Z,99299.94
2023-04-15T01:16:53.888Z,99308.97
2023-04-15T01:20:00.135Z,99299.47
2023-04-15T01:23:06.407Z,99298.72
2023-04-15T01:26:09.575Z,99297.84
2023-04-15T01:29:13.290Z,99310.41
2023-04-15T01:32:15.957Z,99307.63
2023-04-15T01:35:20.152Z,99312.47
2023-04-15T01:38:22.587Z,99306.81
2023-04-15T01:41:29.119Z,99310.78
2023-04-15T01:44:31.665Z,99311.25
2023-04-15T01:47:34.506Z,99313.66
2023-04-15T01:50:38.267Z,99316.78
2023-04-15T01:53:41.187Z,99309.97
2023-04-15T01:56:44.290Z,99314.25
2023-04-15T01:59:47.484Z,99311.69
2023-04-15T02:02:50.779Z,99313.38
2023-04-15T02:05:53.444Z,99304.44
2023-04-15T02:08:56.620Z,99304.91
2023-04-15T02:11:59.559Z,99311.78
2023-04-15T02:15:02.553Z,99314.00
2023-04-15T02:18:05.432Z,99308.44
2023-04-15T02:21:08.307Z,99313.28
2023-04-15T02:24:12.843Z,99309.34
2023-04-15T02:27:22.988Z,99309.31
2023-04-15T02:30:27.288Z,99305.16
2023-04-15T02:33:29.633Z,99303.03
2023-04-15T02:36:32.272Z,99302.91
2023-04-15T02:39:34.659Z,99296.28
2023-04-15T02:42:37.811Z,99296.81
2023-04-15T02:45:41.405Z,99289.22
2023-04-15T02:48:44.319Z,99291.97
2023-04-15T02:51:50.033Z,99293.03
2023-04-15T02:54:57.819Z,99289.28
2023-04-15T02:58:01.237Z,99303.00
2023-04-15T03:01:04.171Z,99298.75
2023-04-15T03:04:09.045Z,99303.69
2023-04-15T03:07:11.888Z,99306.50
2023-04-15T03:10:14.549Z,99296.34
2023-04-15T03:13:17.244Z,99301.75
2023-04-15T03:16:20.060Z,99299.84
2023-04-15T03:19:22.960Z,99304.53
2023-04-15T03:22:26.664Z,99295.78
2023-04-15T03:25:29.585Z,99291.28
2023-04-15T03:28:32.861Z,99287.53
2023-04-15T03:31:36.054Z,99288.44
2023-04-15T03:34:38.362Z,99293.78
2023-04-15T03:37:41.332Z,99302.31
2023-04-15T03:40:44.227Z,99297.84
2023-04-15T03:43:46.952Z,99298.56
2023-04-15T03:46:49.649Z,99303.53
2023-04-15T03:49:52.569Z,99303.62
2023-04-15T03:52:55.028Z,99313.41
2023-04-15T03:55:57.670Z,99303.53
2023-04-15T03:59:00.422Z,99313.41
2023-04-15T04:02:03.381Z,99322.16
2023-04-15T04:05:06.487Z,99321.69
2023-04-15T04:08:08.913Z,99326.50
2023-04-15T04:11:11.880Z,99323.66
2023-04-15T04:14:14.330Z,99331.09
2023-04-15T04:17:17.083Z,99328.16
2023-04-15T04:20:19.471Z,99331.34
2023-04-15T04:23:22.092Z,99335.59
2023-04-15T04:26:24.442Z,99334.19
2023-04-15T04:29:27.125Z,99327.56
2023-04-15T04:32:29.673Z,99333.44
2023-04-15T04:35:34.948Z,99337.72
2023-04-15T04:38:37.461Z,99343.38
2023-04-15T04:41:40.246Z,99337.47
2023-04-15T04:44:42.755Z,99342.91
2023-04-15T04:47:45.568Z,99350.06
2023-04-15T04:50:48.188Z,99345.47
2023-04-15T04:53:50.975Z,99347.81
2023-04-15T04:56:53.477Z,99352.53
2023-04-15T04:59:56.262Z,99353.22
2023-04-15T05:02:59.223Z,99359.81
2023-04-15T05:06:06.189Z,99356.25
2023-04-15T05:09:08.601Z,99354.84
2023-04-15T05:12:15.056Z,99357.03
2023-04-15T05:15:17.847Z,99368.19
2023-04-15T05:18:20.718Z,99368.00
2023-04-15T05:21:23.601Z,99370.66
2023-04-15T05:24:26.606Z,99367.91
2023-04-15T05:27:29.132Z,99370.50
2023-04-15T05:30:32.270Z,99376.16
2023-04-15T05:33:34.949Z,99375.25
2023-04-15T05:36:37.805Z,99380.69
2023-04-15T05:39:40.376Z,99370.13
2023-04-15T05:42:43.118Z,99373.16
2023-04-15T05:45:45.969Z,99372.62
2023-04-15T05:48:48.647Z,99373.12
2023-04-15T05:51:51.575Z,99369.50
2023-04-15T05:54:54.477Z,99377.09
2023-04-15T05:57:57.426Z,99382.88
2023-04-15T06:01:00.520Z,99380.81
2023-04-15T06:04:03.273Z,99381.28
2023-04-15T06:07:06.091Z,99389.13
2023-04-15T06:10:09.273Z,99388.81
2023-04-15T06:13:11.709Z,99392.78
2023-04-15T06:16:14.529Z,99392.16
2023-04-15T06:19:17.285Z,99396.41
2023-04-15T06:22:20.068Z,99400.19
2023-04-15T06:25:22.656Z,99398.63
2023-04-15T06:28:25.595Z,99397.63
2023-04-15T06:31:28.004Z,99389.63
2023-04-15T06:34:30.797Z,99405.47
2023-04-15T06:37:33.177Z,99402.00
2023-04-15T06:40:36.115Z,99402.28
2023-04-15T06:43:39.383Z,99410.88
2023-04-15T06:46:42.252Z,99409.31
2023-04-15T06:49:45.002Z,99415.69
2023-04-15T06:52:47.741Z,99409.09
2023-04-15T06:55:50.034Z,99410.06
2023-04-15T06:58:52.913Z,99404.88
2023-04-15T07:01:55.741Z,99404.22
2023-04-15T07:04:58.511Z,99412.63
2023-04-15T07:08:01.253Z,99421.31
2023-04-15T07:11:04.354Z,99422.44
2023-04-15T07:14:06.943Z,99422.94
2023-04-15T07:17:09.994Z,99425.75
2023-04-15T07:20:13.037Z,99419.66
2023-04-15T07:23:16.384Z,99429.19
2023-04-15T07:26:18.794Z,99432.62
2023-04-15T07:29:21.702Z,99428.91
2023-04-15T07:32:24.202Z,99439.53
2023-04-15T07:35:27.647Z,99445.00
2023-04-15T07:38:30.166Z,99445.00
2023-04-15T07:41:33.080Z,99448.47
2023-04-15T07:44:35.752Z,99452.13
2023-04-15T07:47:38.453Z,99459.00
2023-04-15T07:50:40.840Z,99459.00
2023-04-15T07:53:44.768Z,99446.25
2023-04-15T07:56:47.282Z,99450.69
2023-04-15T07:59:50.111Z,99453.56
2023-04-15T08:02:54.152Z,99444.47
2023-04-15T08:05:57.557Z,99449.03
2023-04-15T08:09:00.546Z,99442.41
2023-04-15T08:12:03.919Z,99435.41
2023-04-15T08:15:08.342Z,99436.41
2023-04-15T08:18:11.339Z,99446.31
2023-04-15T08:21:14.084Z,99444.66
2023-04-15T08:24:16.805Z,99455.69
2023-04-15T08:27:20.069Z,99453.06
2023-04-15T08:30:22.830Z,99446.84
2023-04-15T08:33:25.978Z,99465.28
2023-04-15T08:36:28.669Z,99463.62
2023-04-15T08:39:31.187Z,99460.06
2023-04-15T08:42:42.901Z,99458.16
2023-04-15T08:45:46.935Z,99462.84
2023-04-15T08:48:50.500Z,99467.75
2023-04-15T08:51:53.311Z,99458.00
2023-04-15T08:55:01.091Z,99461.34
2023-04-15T08:58:04.788Z,99456.12
2023-04-15T09:01:07.958Z,99463.94
2023-04-15T09:04:12.597Z,99455.44
2023-04-15T09:07:15.480Z,99462.75
2023-04-15T09:10:17.994Z,99455.22
2023-04-15T09:13:20.638Z,99449.19
2023-04-15T09:16:23.159Z,99457.84
2023-04-15T09:19:26.321Z,99465.44
2023-04-15T09:22:33.047Z,99459.50
2023-04-15T09:25:35.902Z,99460.72
2023-04-15T09:28:43.613Z,99456.25
2023-04-15T09:31:46.649Z,99462.41
2023-04-15T09:34:49.164Z,99463.88
2023-04-15T09:37:52.783Z,99464.41
2023-04-15T09:40:55.449Z,99470.22
2023-04-15T09:43:58.161Z,99464.53
2023-04-15T09:47:00.945Z,99451.94
2023-04-15T09:50:03.997Z,99459.25
2023-04-15T09:53:06.500Z,99457.88
2023-04-15T09:56:10.616Z,99443.00
2023-04-15T09:59:13.106Z,99463.38
2023-04-15T10:02:16.553Z,99457.63
2023-04-15T10:05:19.420Z,99447.44
2023-04-15T10:08:25.028Z,99460.03
2023-04-15T10:11:30.386Z,99453.94
2023-04-15T10:14:38.655Z,99448.38
2023-04-15T10:17:45.106Z,99444.00
2023-04-15T10:20:49.160Z,99430.69
2023-04-15T10:23:52.361Z,99434.19
2023-04-15T10:26:55.607Z,99437.06
2023-04-15T10:30:03.865Z,99434.16
2023-04-15T10:33:08.858Z,99447.56
2023-04-15T10:36:12.639Z,99441.00
2023-04-15T10:39:34.254Z,99442.34
2023-04-15T10:42:37.078Z,99454.47
2023-04-15T10:45:39.492Z,99442.41
2023-04-15T10:48:48.816Z,99436.84
2023-04-15T10:51:59.035Z,99439.66
2023-04-15T10:55:07.806Z,99442.38
2023-04-15T10:58:10.460Z,99437.47
2023-04-15T11:01:13.590Z,99443.75
2023-04-15T11:04:35.955Z,99439.16
2023-04-15T11:07:40.207Z,99435.19
2023-04-15T11:10:42.555Z,99442.53
2023-04-15T11:13:52.648Z,99447.94
2023-04-15T11:16:55.610Z,99448.28
2023-04-15T11:19:58.672Z,99452.00
2023-04-15T11:23:14.166Z,99453.56
2023-04-15T11:26:18.477Z,99457.66
2023-04-15T11:29:21.398Z,99458.97
2023-04-15T11:32:24.078Z,99466.66
2023-04-15T11:35:26.856Z,99478.13
2023-04-15T11:38:29.556Z,99465.06
2023-04-15T11:41:31.875Z,99454.72
2023-04-15T11:44:34.582Z,99456.81
2023-04-15T11:47:37.939Z,99471.31
2023-04-15T11:50:41.360Z,99471.09
2023-04-15T11:53:52.114Z,99462.59
2023-04-15T11:56:55.005Z,99479.31
2023-04-15T11:59:57.454Z,99461.13
2023-04-15T12:03:18.014Z,99469.41
2023-04-15T12:06:24.759Z,99460.69
2023-04-15T12:09:27.195Z,99470.62
2023-04-15T12:12:30.905Z,99466.75
2023-04-15T12:15:33.302Z,99463.56
2023-04-15T12:18:38.557Z,99463.44
2023-04-15T12:21:44.196Z,99464.53
2023-04-15T12:24:48.832Z,99466.13
2023-04-15T12:27:53.526Z,99475.56
2023-04-15T12:30:56.539Z,99468.19
2023-04-15T12:34:01.166Z,99477.13
2023-04-15T12:37:07.284Z,99466.87
2023-04-15T12:40:10.172Z,99484.25
2023-04-15T12:43:12.851Z,99465.75
2023-04-15T12:46:15.882Z,99468.91
2023-04-15T12:49:20.976Z,99477.63
2023-04-15T12:52:24.497Z,99473.22
2023-04-15T12:55:27.825Z,99495.50
2023-04-15T12:58:30.372Z,99489.38
2023-04-15T13:01:33.431Z,99482.75
2023-04-15T13:04:36.137Z,99497.16
2023-04-15T13:07:39.100Z,99483.19
2023-04-15T13:10:42.580Z,99487.31
2023-04-15T13:13:45.629Z,99486.66
2023-04-15T13:16:48.033Z,99493.38
2023-04-15T13:19:50.737Z,99489.06
2023-04-15T13:22:54.266Z,99488.13
2023-04-15T13:25:57.233Z,99487.50
2023-04-15T13:29:00.730Z,99483.91
2023-04-15T13:32:03.970Z,99490.75
2023-04-15T13:35:06.839Z,99507.00
2023-04-15T13:38:09.634Z,99513.84
2023-04-15T13:41:11.988Z,99517.09
2023-04-15T13:44:14.797Z,99521.41
2023-04-15T13:47:19.256Z,99509.56
2023-04-15T13:50:22.350Z,99527.59
2023-04-15T13:53:27.438Z,99521.84
2023-04-15T13:56:41.442Z,99511.78
2023-04-15T13:59:44.232Z,99522.88
2023-04-15T14:02:47.114Z,99522.69
2023-04-15T14:05:55.853Z,99543.22
2023-04-15T14:08:58.324Z,99545.97
2023-04-15T14:12:01.610Z,99531.84
2023-04-15T14:15:04.430Z,99536.16
2023-04-15T14:18:08.011Z,99545.25
2023-04-15T14:21:10.648Z,99539.34
2023-04-15T14:24:13.532Z,99537.81
2023-04-15T14:27:16.797Z,99544.59
2023-04-15T14:30:19.593Z,99533.19
2023-04-15T14:33:21.931Z,99531.91
2023-04-15T14:36:24.607Z,99534.09
2023-04-15T14:39:27.462Z,99542.16
2023-04-15T14:42:30.413Z,99536.94
2023-04-15T14:45:33.029Z,99547.25
2023-04-15T14:48:35.920Z,99547.72
2023-04-15T14:51:39.649Z,99547.06
2023-04-15T14:54:43.928Z,99551.50
2023-04-15T14:57:46.372Z,99557.50
2023-04-15T15:00:49.089Z,99564.00
2023-04-15T15:03:51.653Z,99564.78
2023-04-15T15:06:55.036Z,99574.37
2023-04-15T15:09:57.503Z,99573.06
2023-04-15T15:13:00.336Z,99565.72
2023-04-15T15:16:02.931Z,99569.00
2023-04-15T15:19:05.958Z,99557.63
2023-04-15T15:22:08.536Z,99572.84
2023-04-15T15:25:11.281Z,99569.75
2023-04-15T15:28:13.722Z,99569.66
2023-04-15T15:31:16.774Z,99570.97
2023-04-15T15:34:19.250Z,99569.91
2023-04-15T15:37:22.057Z,99575.97
2023-04-15T15:40:24.622Z,99573.19
2023-04-15T15:43:27.477Z,99575.72
2023-04-15T15:46:31.534Z,99581.22
2023-04-15T15:49:34.571Z,99581.75
2023-04-15T15:52:36.947Z,99581.28
2023-04-15T15:55:39.579Z,99578.00
2023-04-15T15:58:45.070Z,99577.50
2023-04-15T16:01:48.415Z,99577.75
2023-04-15T16:04:52.610Z,99573.84
2023-04-15T16:07:55.029Z,99577.19
2023-04-15T16:10:57.910Z,99583.13
2023-04-15T16:14:00.286Z,99582.81
2023-04-15T16:17:02.930Z,99579.88
2023-04-15T16:20:06.290Z,99586.44
2023-04-15T16:23:14.066Z,99589.72
2023-04-15T16:26:17.078Z,99593.50
2023-04-15T16:29:19.995Z,99594.28
2023-04-15T16:32:22.692Z,99600.28
2023-04-15T16:35:25.538Z,99595.78
2023-04-15T16:38:28.061Z,99599.97
2023-04-15T16:41:32.595Z,99593.69
2023-04-15T16:44:36.339Z,99602.16
2023-04-15T16:47:39.099Z,99602.03
2023-04-15T16:50:41.666Z,99605.75
2023-04-15T16:53:44.477Z,99614.97
2023-04-15T16:56:46.937Z,99616.50
2023-04-15T16:59:50.124Z,99619.69
2023-04-15T17:02:52.852Z,99615.94
2023-04-15T17:05:55.917Z,99626.06
2023-04-15T17:08:58.268Z,99627.28
2023-04-15T17:12:01.923Z,99619.78
2023-04-15T17:15:04.611Z,99634.47
2023-04-15T17:18:08.679Z,99628.63
2023-04-15T17:21:11.167Z,99637.25
2023-04-15T17:24:13.957Z,99634.81
2023-04-15T17:30:19.404Z,99644.91
2023-04-15T17:33:54.049Z,99645.22
2023-04-15T17:36:45.472Z,99656.13
2023-04-15T17:39:48.036Z,99659.69
2023-04-15T17:42:50.806Z,99666.69
2023-04-15T17:45:53.195Z,99663.38
2023-04-15T17:48:56.129Z,99674.41
2023-04-15T17:51:58.748Z,99683.22
2023-04-15T17:55:01.478Z,99690.38
2023-04-15T17:58:04.052Z,99696.66
2023-04-15T18:01:06.822Z,99703.66
2023-04-15T18:04:09.737Z,99699.94
2023-04-15T18:07:12.400Z,99709.97
2023-04-15T18:10:15.026Z,99716.25
2023-04-15T18:13:17.443Z,99721.59
2023-04-15T18:16:20.493Z,99731.16
2023-04-15T18:19:24.625Z,99728.63
2023-04-15T18:22:27.362Z,99732.72
2023-04-15T18:25:30.185Z,99731.47
2023-04-15T18:28:33.033Z,99730.78
2023-04-15T18:31:35.479Z,99738.72
2023-04-15T18:34:38.421Z,99754.63
2023-04-15T18:37:40.781Z,99764.50
2023-04-15T18:40:43.496Z,99777.84
2023-04-15T18:43:46.005Z,99774.53
2023-04-15T18:46:49.473Z,99769.81
2023-04-15T18:49:52.113Z,99779.81
2023-04-15T18:52:54.775Z,99783.91
2023-04-15T18:55:58.106Z,99776.84
2023-04-15T18:59:09.880Z,99779.25
2023-04-15T19:02:23.529Z,99791.12
2023-04-15T19:05:26.266Z,99795.44
2023-04-15T19:08:29.729Z,99801.38
2023-04-15T19:11:32.335Z,99796.94
2023-04-15T19:14:34.911Z,99800.97
2023-04-15T19:17:37.645Z,99805.25
2023-04-15T19:20:40.393Z,99800.75
2023-04-15T19:23:43.352Z,99806.47
2023-04-15T19:26:49.074Z,99801.97
2023-04-15T19:29:51.813Z,99811.47
2023-04-15T19:32:54.281Z,99804.81
2023-04-15T19:36:05.437Z,99814.28
2023-04-15T19:39:08.247Z,99815.12
2023-04-15T19:42:11.053Z,99825.19
2023-04-15T19:45:13.776Z,99821.62
2023-04-15T19:48:16.864Z,99825.69
2023-04-15T19:51:19.595Z,99832.03
2023-04-15T19:54:25.102Z,99826.28
2023-04-15T19:57:27.606Z,99833.00
2023-04-15T20:00:31.432Z,99840.31
2023-04-15T20:03:34.177Z,99846.09
2023-04-15T20:06:36.548Z,99847.31
2023-04-15T20:09:39.367Z,99848.84
2023-04-15T20:12:51.628Z,99843.19
2023-04-15T20:15:55.776Z,99836.31
2023-04-15T20:19:18.496Z,99847.19
2023-04-15T20:22:21.287Z,99841.41
2023-04-15T20:25:23.983Z,99856.91
2023-04-15T20:28:27.881Z,99857.47
2023-04-15T20:31:30.389Z,99855.94
2023-04-15T20:34:33.126Z,99862.56
2023-04-15T20:37:38.069Z,99852.50
2023-04-15T20:40:41.871Z,99858.28
2023-04-15T20:43:44.295Z,99861.56
2023-04-15T20:46:47.023Z,99860.38
2023-04-15T20:49:49.708Z,99862.94
2023-04-15T20:52:52.539Z,99861.75
2023-04-15T20:55:55.080Z,99868.44
2023-04-15T20:58:58.032Z,99860.31
2023-04-15T21:02:00.749Z,99875.69
2023-04-15T21:05:03.602Z,99874.03
2023-04-15T21:08:06.355Z,99876.34
2023-04-15T21:11:09.032Z,99874.72
2023-04-15T21:14:12.359Z,99875.16
2023-04-15T21:17:15.163Z,99874.19
2023-04-15T21:20:17.863Z,99875.00
2023-04-15T21:23:20.848Z,99876.81
2023-04-15T21:26:23.265Z,99869.75
2023-04-15T21:29:26.046Z,99878.19
2023-04-15T21:32:30.523Z,99883.97
2023-04-15T21:35:33.321Z,99887.37
2023-04-15T21:38:35.785Z,99895.78
2023-04-15T21:41:38.615Z,99892.28
2023-04-15T21:44:41.511Z,99886.00
2023-04-15T21:48:01.034Z,99899.34
2023-04-15T21:51:08.133Z,99895.28
2023-04-15T21:54:11.100Z,99903.28
2023-04-15T21:57:13.783Z,99898.72
2023-04-15T22:00:16.658Z,99905.06
2023-04-15T22:03:19.452Z,99900.03
2023-04-15T22:06:22.019Z,99905.41
2023-04-15T22:09:24.706Z,99900.91
2023-04-15T22:12:27.237Z,99910.28
2023-04-15T22:15:30.134Z,99910.00
2023-04-15T22:18:32.579Z,99910.50
2023-04-15T22:21:35.531Z,99908.59
2023-04-15T22:24:40.670Z,99905.88
2023-04-15T22:27:43.807Z,99906.50
2023-04-15T22:30:46.200Z,99907.44
2023-04-15T22:33:48.837Z,99903.38
2023-04-15T22:36:52.078Z,99909.84
2023-04-15T22:39:54.878Z,99910.28
2023-04-15T22:42:57.354Z,99914.47
2023-04-15T22:46:01.089Z,99910.41
2023-04-15T22:49:06.212Z,99911.66
2023-04-15T22:52:10.425Z,99908.16
2023-04-15T22:55:14.924Z,99908.03
2023-04-15T22:58:18.444Z,99914.28
2023-04-15T23:01:21.263Z,99913.03
2023-04-15T23:04:27.674Z,99909.69
2023-04-15T23:07:30.444Z,99911.56
2023-04-15T23:10:33.485Z,99916.56
2023-04-15T23:13:36.335Z,99914.91
2023-04-15T23:16:39.194Z,99916.75
2023-04-15T23:19:41.531Z,99917.87
2023-04-15T23:22:44.287Z,99929.81
2023-04-15T23:25:46.844Z,99928.56
2023-04-15T23:28:49.532Z,99920.28
2023-04-15T23:31:54.371Z,99922.56
2023-04-15T23:34:57.264Z,99919.72
2023-04-15T23:37:59.857Z,99916.84
2023-04-15T23:41:02.620Z,99918.41
2023-04-15T23:44:05.365Z,99917.41
2023-04-15T23:47:08.233Z,99921.75
2023-04-15T23:50:10.966Z,99924.19
2023-04-15T23:53:13.558Z,99927.72
2023-04-15T23:56:15.969Z,99927.84
2023-04-15T23:59:18.727Z,99917.78
